sensor_id;sensor_type;location;lat;lon;timestamp;pressure;altitude;pressure_sealevel;temperature;humidity
39267;BME280;24967;51.154;13.812;2022-10-16T00:00:45;99241.03;;;17.26;80.37
39267;BME280;24967;51.154;13.812;2022-10-16T00:03:12;99252.56;;;17.20;80.56
39267;BME280;24967;51.154;13.812;2022-10-16T00:05:39;99255.25;;;17.20;80.46
39267;BME280;24967;51.154;13.812;2022-10-16T00:08:07;99256.66;;;17.09;81.36
39267;BME280;24967;51.154;13.812;2022-10-16T00:10:35;99255.63;;;17.10;81.42
39267;BME280;24967;51.154;13.812;2022-10-16T00:13:03;99258.50;;;17.08;81.46
39267;BME280;24967;51.154;13.812;2022-10-16T00:15:30;99254.38;;;17.12;81.23
39267;BME280;24967;51.154;13.812;2022-10-16T00:17:59;99261.63;;;17.12;80.94
39267;BME280;24967;51.154;13.812;2022-10-16T00:20:25;99271.53;;;17.11;80.56
39267;BME280;24967;51.154;13.812;2022-10-16T00:22:52;99257.53;;;17.16;80.39
39267;BME280;24967;51.154;13.812;2022-10-16T00:25:18;99261.44;;;17.13;80.05
39267;BME280;24967;51.154;13.812;2022-10-16T00:27:47;99269.28;;;17.15;79.95
39267;BME280;24967;51.154;13.812;2022-10-16T00:30:13;99268.41;;;17.08;79.96
39267;BME280;24967;51.154;13.812;2022-10-16T00:32:40;99271.25;;;17.00;80.75
39267;BME280;24967;51.154;13.812;2022-10-16T00:35:07;99277.28;;;17.02;80.95
39267;BME280;24967;51.154;13.812;2022-10-16T00:37:33;99283.44;;;16.96;81.00
39267;BME280;24967;51.154;13.812;2022-10-16T00:40:00;99273.09;;;16.92;81.70
39267;BME280;24967;51.154;13.812;2022-10-16T00:42:26;99272.31;;;16.99;81.48
39267;BME280;24967;51.154;13.812;2022-10-16T00:44:56;99276.81;;;16.91;81.54
39267;BME280;24967;51.154;13.812;2022-10-16T00:47:27;99284.03;;;16.91;82.02
39267;BME280;24967;51.154;13.812;2022-10-16T00:49:59;99284.13;;;16.76;83.65
39267;BME280;24967;51.154;13.812;2022-10-16T00:52:27;99277.97;;;16.82;83.56
39267;BME280;24967;51.154;13.812;2022-10-16T00:54:54;99283.81;;;16.86;83.08
39267;BME280;24967;51.154;13.812;2022-10-16T00:57:21;99284.50;;;16.73;84.35
39267;BME280;24967;51.154;13.812;2022-10-16T00:59:48;99276.97;;;16.83;83.85
39267;BME280;24967;51.154;13.812;2022-10-16T01:02:16;99290.63;;;16.88;83.44
39267;BME280;24967;51.154;13.812;2022-10-16T01:04:45;99286.75;;;16.98;82.88
39267;BME280;24967;51.154;13.812;2022-10-16T01:07:18;99285.09;;;16.97;82.84
39267;BME280;24967;51.154;13.812;2022-10-16T01:09:54;99285.72;;;16.99;82.60
39267;BME280;24967;51.154;13.812;2022-10-16T01:12:32;99290.84;;;16.93;82.98
39267;BME280;24967;51.154;13.812;2022-10-16T01:15:05;99282.75;;;16.87;83.49
39267;BME280;24967;51.154;13.812;2022-10-16T01:17:41;99282.75;;;16.87;83.91
39267;BME280;24967;51.154;13.812;2022-10-16T01:20:14;99288.78;;;16.89;83.73
39267;BME280;24967;51.154;13.812;2022-10-16T01:22:56;99286.31;;;16.94;83.97
39267;BME280;24967;51.154;13.812;2022-10-16T01:25:34;99290.06;;;17.00;83.93
39267;BME280;24967;51.154;13.812;2022-10-16T01:28:06;99285.31;;;16.95;84.09
39267;BME280;24967;51.154;13.812;2022-10-16T01:30:36;99295.03;;;17.03;84.48
39267;BME280;24967;51.154;13.812;2022-10-16T01:33:08;99291.13;;;17.05;84.10
39267;BME280;24967;51.154;13.812;2022-10-16T01:35:38;99294.03;;;17.04;84.29
39267;BME280;24967;51.154;13.812;2022-10-16T01:38:11;99294.63;;;17.06;84.01
39267;BME280;24967;51.154;13.812;2022-10-16T01:40:42;99299.28;;;16.84;86.13
39267;BME280;24967;51.154;13.812;2022-10-16T01:43:13;99303.88;;;16.97;85.95
39267;BME280;24967;51.154;13.812;2022-10-16T01:45:41;99302.47;;;17.01;85.84
39267;BME280;24967;51.154;13.812;2022-10-16T01:48:12;99304.03;;;17.23;84.38
39267;BME280;24967;51.154;13.812;2022-10-16T01:50:41;99294.19;;;17.37;83.68
39267;BME280;24967;51.154;13.812;2022-10-16T01:53:12;99288.16;;;17.28;83.56
39267;BME280;24967;51.154;13.812;2022-10-16T01:55:42;99291.25;;;17.25;83.57
39267;BME280;24967;51.154;13.812;2022-10-16T01:58:13;99290.47;;;17.38;83.02
39267;BME280;24967;51.154;13.812;2022-10-16T02:00:42;99275.31;;;17.30;83.67
39267;BME280;24967;51.154;13.812;2022-10-16T02:03:11;99280.31;;;17.33;83.49
39267;BME280;24967;51.154;13.812;2022-10-16T02:05:41;99287.53;;;17.33;83.68
39267;BME280;24967;51.154;13.812;2022-10-16T02:08:10;99281.84;;;17.08;85.34
39267;BME280;24967;51.154;13.812;2022-10-16T02:10:37;99297.03;;;17.29;84.19
39267;BME280;24967;51.154;13.812;2022-10-16T02:13:06;99301.03;;;17.05;85.87
39267;BME280;24967;51.154;13.812;2022-10-16T02:15:36;99305.91;;;17.23;85.34
39267;BME280;24967;51.154;13.812;2022-10-16T02:18:04;99300.03;;;17.54;83.64
39267;BME280;24967;51.154;13.812;2022-10-16T02:20:34;99291.78;;;17.55;82.64
39267;BME280;24967;51.154;13.812;2022-10-16T02:23:03;99311.00;;;17.59;82.45
39267;BME280;24967;51.154;13.812;2022-10-16T02:25:32;99314.13;;;17.62;82.42
39267;BME280;24967;51.154;13.812;2022-10-16T02:28:03;99311.34;;;17.43;83.20
39267;BME280;24967;51.154;13.812;2022-10-16T02:30:34;99300.84;;;17.54;82.56
39267;BME280;24967;51.154;13.812;2022-10-16T02:33:07;99314.94;;;17.63;82.22
39267;BME280;24967;51.154;13.812;2022-10-16T02:35:35;99318.66;;;17.62;81.60
39267;BME280;24967;51.154;13.812;2022-10-16T02:38:02;99312.06;;;17.65;81.94
39267;BME280;24967;51.154;13.812;2022-10-16T02:40:29;99314.75;;;17.71;81.51
39267;BME280;24967;51.154;13.812;2022-10-16T02:42:56;99310.25;;;17.78;81.11
39267;BME280;24967;51.154;13.812;2022-10-16T02:45:23;99311.13;;;17.99;80.03
39267;BME280;24967;51.154;13.812;2022-10-16T02:47:50;99315.69;;;17.98;79.96
39267;BME280;24967;51.154;13.812;2022-10-16T02:50:18;99323.53;;;18.00;80.27
39267;BME280;24967;51.154;13.812;2022-10-16T02:52:45;99314.44;;;17.94;80.34
39267;BME280;24967;51.154;13.812;2022-10-16T02:55:11;99313.78;;;17.79;80.68
39267;BME280;24967;51.154;13.812;2022-10-16T02:57:38;99306.56;;;17.86;80.53
39267;BME280;24967;51.154;13.812;2022-10-16T03:00:06;99298.91;;;17.83;80.53
39267;BME280;24967;51.154;13.812;2022-10-16T03:02:33;99304.31;;;17.96;80.22
39267;BME280;24967;51.154;13.812;2022-10-16T03:04:59;99293.53;;;17.96;80.13
39267;BME280;24967;51.154;13.812;2022-10-16T03:07:27;99303.47;;;17.89;80.51
39267;BME280;24967;51.154;13.812;2022-10-16T03:09:54;99298.09;;;17.89;80.46
39267;BME280;24967;51.154;13.812;2022-10-16T03:12:20;99307.81;;;17.83;81.00
39267;BME280;24967;51.154;13.812;2022-10-16T03:14:47;99309.69;;;17.90;80.69
39267;BME280;24967;51.154;13.812;2022-10-16T03:17:14;99306.97;;;17.90;80.65
39267;BME280;24967;51.154;13.812;2022-10-16T03:19:42;99310.09;;;18.00;80.11
39267;BME280;24967;51.154;13.812;2022-10-16T03:22:08;99316.09;;;17.89;80.63
39267;BME280;24967;51.154;13.812;2022-10-16T03:24:36;99315.69;;;17.92;80.64
39267;BME280;24967;51.154;13.812;2022-10-16T03:27:03;99311.13;;;17.85;80.80
39267;BME280;24967;51.154;13.812;2022-10-16T03:29:30;99317.53;;;17.91;80.59
39267;BME280;24967;51.154;13.812;2022-10-16T03:31:57;99311.13;;;17.99;80.22
39267;BME280;24967;51.154;13.812;2022-10-16T03:34:24;99319.03;;;18.00;79.96
39267;BME280;24967;51.154;13.812;2022-10-16T03:36:50;99335.75;;;18.09;79.82
39267;BME280;24967;51.154;13.812;2022-10-16T03:39:19;99332.25;;;18.15;79.42
39267;BME280;24967;51.154;13.812;2022-10-16T03:41:47;99327.50;;;17.97;79.64
39267;BME280;24967;51.154;13.812;2022-10-16T03:44:13;99314.06;;;18.04;79.58
39267;BME280;24967;51.154;13.812;2022-10-16T03:46:40;99325.63;;;18.04;79.14
39267;BME280;24967;51.154;13.812;2022-10-16T03:49:07;99327.69;;;18.09;78.96
39267;BME280;24967;51.154;13.812;2022-10-16T03:51:34;99333.94;;;18.10;78.78
39267;BME280;24967;51.154;13.812;2022-10-16T03:54:00;99338.69;;;18.07;78.15
39267;BME280;24967;51.154;13.812;2022-10-16T03:56:27;99348.38;;;18.02;78.26
39267;BME280;24967;51.154;13.812;2022-10-16T03:58:55;99352.94;;;17.95;78.33
39267;BME280;24967;51.154;13.812;2022-10-16T04:01:22;99348.78;;;17.85;78.63
39267;BME280;24967;51.154;13.812;2022-10-16T04:03:48;99340.66;;;17.79;79.25
39267;BME280;24967;51.154;13.812;2022-10-16T04:06:15;99343.28;;;17.72;79.53
39267;BME280;24967;51.154;13.812;2022-10-16T04:08:42;99344.53;;;17.70;79.84
39267;BME280;24967;51.154;13.812;2022-10-16T04:11:09;99348.88;;;17.71;79.77
39267;BME280;24967;51.154;13.812;2022-10-16T04:13:36;99345.81;;;17.74;79.50
39267;BME280;24967;51.154;13.812;2022-10-16T04:16:04;99346.41;;;17.76;79.29
39267;BME280;24967;51.154;13.812;2022-10-16T04:18:30;99345.41;;;17.77;79.16
39267;BME280;24967;51.154;13.812;2022-10-16T04:21:02;99356.56;;;17.74;79.73
39267;BME280;24967;51.154;13.812;2022-10-16T04:23:29;99361.53;;;17.77;79.78
39267;BME280;24967;51.154;13.812;2022-10-16T04:25:55;99357.63;;;17.79;79.97
39267;BME280;24967;51.154;13.812;2022-10-16T04:28:22;99359.53;;;17.85;79.80
39267;BME280;24967;51.154;13.812;2022-10-16T04:30:49;99371.72;;;17.88;79.43
39267;BME280;24967;51.154;13.812;2022-10-16T04:33:17;99366.31;;;17.81;79.75
39267;BME280;24967;51.154;13.812;2022-10-16T04:35:43;99361.75;;;17.82;79.88
39267;BME280;24967;51.154;13.812;2022-10-16T04:38:10;99363.22;;;17.84;79.86
39267;BME280;24967;51.154;13.812;2022-10-16T04:40:36;99360.94;;;17.81;80.28
39267;BME280;24967;51.154;13.812;2022-10-16T04:43:03;99371.09;;;17.86;80.00
39267;BME280;24967;51.154;13.812;2022-10-16T04:45:30;99376.50;;;17.93;79.84
39267;BME280;24967;51.154;13.812;2022-10-16T04:47:57;99381.88;;;17.93;79.81
39267;BME280;24967;51.154;13.812;2022-10-16T04:50:26;99369.66;;;17.90;79.79
39267;BME280;24967;51.154;13.812;2022-10-16T04:52:52;99372.97;;;17.92;79.95
39267;BME280;24967;51.154;13.812;2022-10-16T04:55:19;99367.78;;;17.91;79.73
39267;BME280;24967;51.154;13.812;2022-10-16T04:57:46;99362.47;;;17.97;79.38
39267;BME280;24967;51.154;13.812;2022-10-16T05:00:13;99360.13;;;17.94;79.23
39267;BME280;24967;51.154;13.812;2022-10-16T05:02:39;99376.50;;;17.99;79.09
39267;BME280;24967;51.154;13.812;2022-10-16T05:05:06;99371.94;;;18.00;78.90
39267;BME280;24967;51.154;13.812;2022-10-16T05:07:34;99378.19;;;18.00;78.58
39267;BME280;24967;51.154;13.812;2022-10-16T05:10:01;99375.69;;;17.99;78.61
39267;BME280;24967;51.154;13.812;2022-10-16T05:12:28;99379.38;;;17.91;79.20
39267;BME280;24967;51.154;13.812;2022-10-16T05:14:54;99380.34;;;17.77;79.27
39267;BME280;24967;51.154;13.812;2022-10-16T05:17:23;99370.03;;;17.80;79.32
39267;BME280;24967;51.154;13.812;2022-10-16T05:19:50;99369.41;;;17.78;79.74
39267;BME280;24967;51.154;13.812;2022-10-16T05:22:17;99381.63;;;17.81;79.33
39267;BME280;24967;51.154;13.812;2022-10-16T05:24:45;99388.97;;;17.66;80.54
39267;BME280;24967;51.154;13.812;2022-10-16T05:27:11;99391.56;;;17.80;80.02
39267;BME280;24967;51.154;13.812;2022-10-16T05:29:44;99397.88;;;17.73;79.87
39267;BME280;24967;51.154;13.812;2022-10-16T05:32:11;99392.97;;;17.76;79.64
39267;BME280;24967;51.154;13.812;2022-10-16T05:34:37;99390.81;;;17.58;79.96
39267;BME280;24967;51.154;13.812;2022-10-16T05:37:04;99385.03;;;17.61;79.42
39267;BME280;24967;51.154;13.812;2022-10-16T05:39:30;99383.75;;;17.57;79.47
39267;BME280;24967;51.154;13.812;2022-10-16T05:41:58;99384.22;;;17.61;79.66
39267;BME280;24967;51.154;13.812;2022-10-16T05:44:25;99382.13;;;17.56;79.70
39267;BME280;24967;51.154;13.812;2022-10-16T05:46:52;99393.53;;;17.65;79.16
39267;BME280;24967;51.154;13.812;2022-10-16T05:49:18;99403.25;;;17.73;79.12
39267;BME280;24967;51.154;13.812;2022-10-16T05:51:45;99399.31;;;17.69;78.90
39267;BME280;24967;51.154;13.812;2022-10-16T05:54:12;99408.22;;;17.69;79.09
39267;BME280;24967;51.154;13.812;2022-10-16T05:56:38;99412.53;;;17.63;79.29
39267;BME280;24967;51.154;13.812;2022-10-16T05:59:06;99426.16;;;17.55;80.07
39267;BME280;24967;51.154;13.812;2022-10-16T06:01:33;99425.75;;;17.58;79.87
39267;BME280;24967;51.154;13.812;2022-10-16T06:04:00;99427.97;;;17.55;80.29
39267;BME280;24967;51.154;13.812;2022-10-16T06:06:27;99431.56;;;17.62;80.13
39267;BME280;24967;51.154;13.812;2022-10-16T06:08:55;99424.97;;;17.65;80.41
39267;BME280;24967;51.154;13.812;2022-10-16T06:11:25;99434.81;;;17.57;81.38
39267;BME280;24967;51.154;13.812;2022-10-16T06:13:53;99431.97;;;17.59;81.54
39267;BME280;24967;51.154;13.812;2022-10-16T06:16:23;99436.28;;;17.60;81.90
39267;BME280;24967;51.154;13.812;2022-10-16T06:18:51;99437.75;;;17.62;82.12
39267;BME280;24967;51.154;13.812;2022-10-16T06:21:19;99447.47;;;17.63;82.33
39267;BME280;24967;51.154;13.812;2022-10-16T06:23:46;99445.63;;;17.64;82.54
39267;BME280;24967;51.154;13.812;2022-10-16T06:26:16;99456.56;;;17.62;83.24
39267;BME280;24967;51.154;13.812;2022-10-16T06:28:43;99459.09;;;17.71;83.28
39267;BME280;24967;51.154;13.812;2022-10-16T06:31:10;99460.19;;;17.76;83.20
39267;BME280;24967;51.154;13.812;2022-10-16T06:33:39;99471.00;;;17.83;82.93
39267;BME280;24967;51.154;13.812;2022-10-16T06:36:08;99456.50;;;17.84;82.94
39267;BME280;24967;51.154;13.812;2022-10-16T06:38:35;99456.72;;;17.82;83.42
39267;BME280;24967;51.154;13.812;2022-10-16T06:41:03;99458.41;;;17.90;82.91
39267;BME280;24967;51.154;13.812;2022-10-16T06:43:30;99468.50;;;17.88;82.62
39267;BME280;24967;51.154;13.812;2022-10-16T06:45:59;99470.66;;;18.06;82.41
39267;BME280;24967;51.154;13.812;2022-10-16T06:48:27;99467.78;;;18.07;82.55
39267;BME280;24967;51.154;13.812;2022-10-16T06:51:00;99477.75;;;18.14;82.55
39267;BME280;24967;51.154;13.812;2022-10-16T06:53:29;99479.41;;;18.21;83.13
39267;BME280;24967;51.154;13.812;2022-10-16T06:55:56;99478.00;;;18.25;83.41
39267;BME280;24967;51.154;13.812;2022-10-16T06:58:23;99480.47;;;18.27;83.79
39267;BME280;24967;51.154;13.812;2022-10-16T07:00:55;99498.16;;;18.43;83.52
39267;BME280;24967;51.154;13.812;2022-10-16T07:03:22;99495.66;;;18.54;83.13
39267;BME280;24967;51.154;13.812;2022-10-16T07:05:49;99499.63;;;18.65;82.57
39267;BME280;24967;51.154;13.812;2022-10-16T07:08:17;99518.50;;;18.72;82.13
39267;BME280;24967;51.154;13.812;2022-10-16T07:10:43;99512.13;;;18.80;81.48
39267;BME280;24967;51.154;13.812;2022-10-16T07:13:10;99506.09;;;18.77;80.87
39267;BME280;24967;51.154;13.812;2022-10-16T07:15:38;99520.44;;;18.91;80.58
39267;BME280;24967;51.154;13.812;2022-10-16T07:18:05;99504.28;;;18.98;79.85
39267;BME280;24967;51.154;13.812;2022-10-16T07:20:31;99515.25;;;19.03;79.89
39267;BME280;24967;51.154;13.812;2022-10-16T07:22:58;99518.16;;;19.02;79.23
39267;BME280;24967;51.154;13.812;2022-10-16T07:25:26;99521.47;;;19.23;78.32
39267;BME280;24967;51.154;13.812;2022-10-16T07:27:53;99523.56;;;19.08;78.23
39267;BME280;24967;51.154;13.812;2022-10-16T07:30:22;99524.59;;;19.27;77.43
39267;BME280;24967;51.154;13.812;2022-10-16T07:32:48;99532.47;;;19.29;77.40
39267;BME280;24967;51.154;13.812;2022-10-16T07:35:15;99543.06;;;19.37;77.16
39267;BME280;24967;51.154;13.812;2022-10-16T07:37:44;99545.53;;;19.38;77.07
39267;BME280;24967;51.154;13.812;2022-10-16T07:40:11;99554.66;;;19.37;76.55
39267;BME280;24967;51.154;13.812;2022-10-16T07:42:39;99556.09;;;19.20;76.95
39267;BME280;24967;51.154;13.812;2022-10-16T07:45:06;99558.59;;;19.35;76.60
39267;BME280;24967;51.154;13.812;2022-10-16T07:47:33;99556.31;;;19.25;76.49
39267;BME280;24967;51.154;13.812;2022-10-16T07:50:00;99556.06;;;19.00;77.70
39267;BME280;24967;51.154;13.812;2022-10-16T07:52:26;99556.50;;;19.17;77.20
39267;BME280;24967;51.154;13.812;2022-10-16T07:54:53;99562.75;;;19.37;76.55
39267;BME280;24967;51.154;13.812;2022-10-16T07:57:20;99566.22;;;18.98;76.65
39267;BME280;24967;51.154;13.812;2022-10-16T07:59:48;99570.81;;;19.11;77.14
39267;BME280;24967;51.154;13.812;2022-10-16T08:02:14;99562.13;;;19.29;76.69
39267;BME280;24967;51.154;13.812;2022-10-16T08:04:41;99562.53;;;19.39;76.94
39267;BME280;24967;51.154;13.812;2022-10-16T08:07:08;99558.19;;;19.44;76.73
39267;BME280;24967;51.154;13.812;2022-10-16T08:09:35;99559.22;;;19.57;76.26
39267;BME280;24967;51.154;13.812;2022-10-16T08:12:01;99554.44;;;19.59;75.71
39267;BME280;24967;51.154;13.812;2022-10-16T08:14:29;99548.84;;;19.54;75.77
39267;BME280;24967;51.154;13.812;2022-10-16T08:16:57;99552.38;;;19.61;75.12
39267;BME280;24967;51.154;13.812;2022-10-16T08:19:24;99562.94;;;19.62;74.83
39267;BME280;24967;51.154;13.812;2022-10-16T08:21:50;99556.72;;;19.62;73.84
39267;BME280;24967;51.154;13.812;2022-10-16T08:24:17;99559.00;;;19.78;74.15
39267;BME280;24967;51.154;13.812;2022-10-16T08:26:44;99566.06;;;19.59;74.62
39267;BME280;24967;51.154;13.812;2022-10-16T08:29:10;99564.81;;;19.75;74.79
39267;BME280;24967;51.154;13.812;2022-10-16T08:31:37;99560.25;;;19.82;74.26
39267;BME280;24967;51.154;13.812;2022-10-16T08:34:05;99559.44;;;19.88;74.64
39267;BME280;24967;51.154;13.812;2022-10-16T08:36:32;99560.22;;;19.96;74.96
39267;BME280;24967;51.154;13.812;2022-10-16T08:38:58;99560.22;;;19.96;74.05
39267;BME280;24967;51.154;13.812;2022-10-16T08:41:58;99564.72;;;20.15;74.87
39267;BME280;24967;51.154;13.812;2022-10-16T08:44:37;99567.59;;;20.33;75.00
39267;BME280;24967;51.154;13.812;2022-10-16T08:47:13;99572.94;;;20.53;74.32
39267;BME280;24967;51.154;13.812;2022-10-16T08:49:55;99582.03;;;20.66;72.12
39267;BME280;24967;51.154;13.812;2022-10-16T08:52:25;99575.41;;;20.62;72.57
39267;BME280;24967;51.154;13.812;2022-10-16T08:54:55;99558.53;;;20.66;72.90
39267;BME280;24967;51.154;13.812;2022-10-16T08:57:24;99561.19;;;20.79;73.51
39267;BME280;24967;51.154;13.812;2022-10-16T08:59:52;99579.22;;;20.86;73.88
39267;BME280;24967;51.154;13.812;2022-10-16T09:02:24;99577.09;;;20.94;73.62
39267;BME280;24967;51.154;13.812;2022-10-16T09:05:01;99570.41;;;21.03;72.53
39267;BME280;24967;51.154;13.812;2022-10-16T09:07:34;99573.19;;;21.22;74.52
39267;BME280;24967;51.154;13.812;2022-10-16T09:10:18;99570.41;;;21.28;72.16
39267;BME280;24967;51.154;13.812;2022-10-16T09:12:48;99564.84;;;21.55;72.25
39267;BME280;24967;51.154;13.812;2022-10-16T09:15:27;99566.84;;;21.60;70.75
39267;BME280;24967;51.154;13.812;2022-10-16T09:17:59;99561.44;;;21.85;69.92
39267;BME280;24967;51.154;13.812;2022-10-16T09:20:40;99550.63;;;21.85;69.63
39267;BME280;24967;51.154;13.812;2022-10-16T09:23:17;99563.00;;;21.92;69.02
39267;BME280;24967;51.154;13.812;2022-10-16T09:25:46;99581.69;;;22.01;68.65
39267;BME280;24967;51.154;13.812;2022-10-16T09:28:14;99591.59;;;22.07;66.07
39267;BME280;24967;51.154;13.812;2022-10-16T09:30:41;99591.88;;;21.99;68.08
39267;BME280;24967;51.154;13.812;2022-10-16T09:33:10;99589.41;;;21.97;68.27
39267;BME280;24967;51.154;13.812;2022-10-16T09:35:40;99584.50;;;22.06;65.98
39267;BME280;24967;51.154;13.812;2022-10-16T09:38:09;99578.06;;;22.07;65.76
39267;BME280;24967;51.154;13.812;2022-10-16T09:40:46;99581.09;;;22.35;66.11
39267;BME280;24967;51.154;13.812;2022-10-16T09:43:20;99580.88;;;22.37;68.18
39267;BME280;24967;51.154;13.812;2022-10-16T09:45:58;99590.66;;;22.56;65.07
39267;BME280;24967;51.154;13.812;2022-10-16T09:48:30;99589.91;;;22.49;63.92
39267;BME280;24967;51.154;13.812;2022-10-16T09:51:02;99591.47;;;22.38;65.03
39267;BME280;24967;51.154;13.812;2022-10-16T09:53:39;99583.59;;;22.18;64.29
39267;BME280;24967;51.154;13.812;2022-10-16T09:56:06;99595.13;;;22.07;65.17
39267;BME280;24967;51.154;13.812;2022-10-16T09:58:33;99593.56;;;21.75;65.78
39267;BME280;24967;51.154;13.812;2022-10-16T10:00:59;99601.00;;;21.61;68.15
39267;BME280;24967;51.154;13.812;2022-10-16T10:03:37;99611.94;;;21.72;70.22
39267;BME280;24967;51.154;13.812;2022-10-16T10:06:18;99602.53;;;21.93;69.86
39267;BME280;24967;51.154;13.812;2022-10-16T10:09:14;99605.69;;;22.15;66.72
39267;BME280;24967;51.154;13.812;2022-10-16T10:11:45;99595.53;;;22.29;66.64
39267;BME280;24967;51.154;13.812;2022-10-16T10:14:25;99609.47;;;22.51;64.60
39267;BME280;24967;51.154;13.812;2022-10-16T10:17:08;99610.75;;;22.49;65.50
39267;BME280;24967;51.154;13.812;2022-10-16T10:19:38;99610.81;;;22.42;64.36
39267;BME280;24967;51.154;13.812;2022-10-16T10:22:16;99615.94;;;22.50;66.01
39267;BME280;24967;51.154;13.812;2022-10-16T10:24:44;99612.22;;;22.63;64.71
39267;BME280;24967;51.154;13.812;2022-10-16T10:27:14;99619.97;;;22.78;65.07
39267;BME280;24967;51.154;13.812;2022-10-16T10:29:53;99622.56;;;22.73;64.86
39267;BME280;24967;51.154;13.812;2022-10-16T10:32:28;99621.84;;;22.77;65.43
39267;BME280;24967;51.154;13.812;2022-10-16T10:35:07;99631.19;;;22.81;64.26
39267;BME280;24967;51.154;13.812;2022-10-16T10:37:55;99628.13;;;22.59;63.73
39267;BME280;24967;51.154;13.812;2022-10-16T10:40:33;99633.53;;;22.41;65.18
39267;BME280;24967;51.154;13.812;2022-10-16T10:43:11;99620.38;;;22.45;65.25
39267;BME280;24967;51.154;13.812;2022-10-16T10:45:43;99641.81;;;22.46;64.69
39267;BME280;24967;51.154;13.812;2022-10-16T10:48:23;99630.66;;;22.36;65.04
39267;BME280;24967;51.154;13.812;2022-10-16T10:50:57;99625.84;;;22.56;65.68
39267;BME280;24967;51.154;13.812;2022-10-16T10:53:43;99631.13;;;22.70;64.79
39267;BME280;24967;51.154;13.812;2022-10-16T10:56:26;99631.41;;;22.80;64.96
39267;BME280;24967;51.154;13.812;2022-10-16T10:59:15;99638.09;;;22.96;64.56
39267;BME280;24967;51.154;13.812;2022-10-16T11:01:50;99638.88;;;23.15;63.01
39267;BME280;24967;51.154;13.812;2022-10-16T11:04:35;99636.94;;;23.22;63.42
39267;BME280;24967;51.154;13.812;2022-10-16T11:07:13;99645.03;;;22.92;63.22
39267;BME280;24967;51.154;13.812;2022-10-16T11:09:46;99638.53;;;22.93;64.09
39267;BME280;24967;51.154;13.812;2022-10-16T11:12:17;99629.53;;;22.62;64.37
39267;BME280;24967;51.154;13.812;2022-10-16T11:14:49;99627.00;;;22.67;64.49
39267;BME280;24967;51.154;13.812;2022-10-16T11:17:23;99622.97;;;22.88;64.77
39267;BME280;24967;51.154;13.812;2022-10-16T11:19:52;99622.66;;;22.78;64.12
39267;BME280;24967;51.154;13.812;2022-10-16T11:22:24;99618.25;;;22.65;63.13
39267;BME280;24967;51.154;13.812;2022-10-16T11:25:00;99624.66;;;22.52;62.72
39267;BME280;24967;51.154;13.812;2022-10-16T11:27:35;99625.94;;;22.68;63.52
39267;BME280;24967;51.154;13.812;2022-10-16T11:30:06;99630.28;;;22.69;63.28
39267;BME280;24967;51.154;13.812;2022-10-16T11:32:52;99628.91;;;22.78;63.88
39267;BME280;24967;51.154;13.812;2022-10-16T11:35:24;99624.66;;;22.71;63.38
39267;BME280;24967;51.154;13.812;2022-10-16T11:37:52;99637.28;;;22.95;62.99
39267;BME280;24967;51.154;13.812;2022-10-16T11:40:27;99634.28;;;23.03;62.37
39267;BME280;24967;51.154;13.812;2022-10-16T11:43:01;99631.56;;;23.03;62.21
39267;BME280;24967;51.154;13.812;2022-10-16T11:45:34;99636.34;;;23.31;62.29
39267;BME280;24967;51.154;13.812;2022-10-16T11:48:11;99636.06;;;22.91;62.76
39267;BME280;24967;51.154;13.812;2022-10-16T11:50:43;99641.25;;;22.93;62.79
39267;BME280;24967;51.154;13.812;2022-10-16T11:53:16;99639.09;;;23.01;61.64
39267;BME280;24967;51.154;13.812;2022-10-16T11:55:46;99642.91;;;22.75;62.59
39267;BME280;24967;51.154;13.812;2022-10-16T11:58:19;99645.19;;;22.78;63.01
39267;BME280;24967;51.154;13.812;2022-10-16T12:00:56;99645.69;;;22.87;62.45
39267;BME280;24967;51.154;13.812;2022-10-16T12:03:29;99653.25;;;22.85;61.72
39267;BME280;24967;51.154;13.812;2022-10-16T12:06:22;99652.41;;;22.66;62.12
39267;BME280;24967;51.154;13.812;2022-10-16T12:08:53;99647.31;;;22.76;61.90
39267;BME280;24967;51.154;13.812;2022-10-16T12:11:34;99639.75;;;22.78;61.66
39267;BME280;24967;51.154;13.812;2022-10-16T12:14:19;99651.81;;;22.82;61.26
39267;BME280;24967;51.154;13.812;2022-10-16T12:16:54;99651.97;;;22.88;61.78
39267;BME280;24967;51.154;13.812;2022-10-16T12:19:22;99647.72;;;22.92;61.12
39267;BME280;24967;51.154;13.812;2022-10-16T12:21:51;99648.28;;;22.82;61.29
39267;BME280;24967;51.154;13.812;2022-10-16T12:24:30;99650.09;;;22.70;60.52
39267;BME280;24967;51.154;13.812;2022-10-16T12:26:59;99655.63;;;22.93;61.30
39267;BME280;24967;51.154;13.812;2022-10-16T12:29:33;99655.13;;;22.66;61.06
39267;BME280;24967;51.154;13.812;2022-10-16T12:32:00;99655.53;;;22.70;62.23
39267;BME280;24967;51.154;13.812;2022-10-16T12:34:34;99665.38;;;22.82;61.74
39267;BME280;24967;51.154;13.812;2022-10-16T12:37:13;99661.75;;;22.70;61.48
39267;BME280;24967;51.154;13.812;2022-10-16T12:39:41;99660.09;;;22.88;61.82
39267;BME280;24967;51.154;13.812;2022-10-16T12:42:23;99669.13;;;22.63;61.60
39267;BME280;24967;51.154;13.812;2022-10-16T12:44:50;99663.72;;;23.00;61.47
39267;BME280;24967;51.154;13.812;2022-10-16T12:47:22;99666.34;;;22.88;62.21
39267;BME280;24967;51.154;13.812;2022-10-16T12:49:51;99672.44;;;23.02;61.96
39267;BME280;24967;51.154;13.812;2022-10-16T12:52:26;99669.50;;;23.03;61.12
39267;BME280;24967;51.154;13.812;2022-10-16T12:54:56;99679.53;;;23.03;61.84
39267;BME280;24967;51.154;13.812;2022-10-16T12:57:55;99679.00;;;22.94;61.73
39267;BME280;24967;51.154;13.812;2022-10-16T13:00:28;99688.31;;;23.17;61.85
39267;BME280;24967;51.154;13.812;2022-10-16T13:03:34;99684.84;;;23.09;61.68
39267;BME280;24967;51.154;13.812;2022-10-16T13:06:17;99688.03;;;22.88;61.97